sensor_id;sensor_type;location;lat;lon;timestamp;P1;durP1;ratioP1;P2;durP2;ratioP2
72209;SDS011;60113;48.762;12.302;2022-07-17T00:01:47;8.45;;;3.90;;
72209;SDS011;60113;48.762;12.302;2022-07-17T00:04:14;7.05;;;3.75;;
72209;SDS011;60113;48.762;12.302;2022-07-17T00:06:39;6.05;;;3.03;;
72209;SDS011;60113;48.762;12.302;2022-07-17T00:09:06;7.80;;;3.58;;
72209;SDS011;60113;48.762;12.302;2022-07-17T00:11:35;9.38;;;3.88;;
72209;SDS011;60113;48.762;12.302;2022-07-17T00:14:01;8.93;;;3.55;;
72209;SDS011;60113;48.762;12.302;2022-07-17T00:16:30;9.93;;;3.67;;
72209;SDS011;60113;48.762;12.302;2022-07-17T00:18:58;4.60;;;3.20;;
72209;SDS011;60113;48.762;12.302;2022-07-17T00:21:29;9.23;;;3.85;;
72209;SDS011;60113;48.762;12.302;2022-07-17T00:23:58;9.00;;;3.58;;
72209;SDS011;60113;48.762;12.302;2022-07-17T00:26:27;6.32;;;3.72;;
72209;SDS011;60113;48.762;12.302;2022-07-17T00:28:54;6.45;;;3.58;;
72209;SDS011;60113;48.762;12.302;2022-07-17T00:31:20;5.38;;;3.45;;
72209;SDS011;60113;48.762;12.302;2022-07-17T00:33:55;7.72;;;3.42;;
72209;SDS011;60113;48.762;12.302;2022-07-17T00:36:24;8.30;;;3.70;;
72209;SDS011;60113;48.762;12.302;2022-07-17T00:39:02;5.80;;;3.65;;
72209;SDS011;60113;48.762;12.302;2022-07-17T00:41:28;7.05;;;3.28;;
72209;SDS011;60113;48.762;12.302;2022-07-17T00:44:09;5.63;;;3.60;;
72209;SDS011;60113;48.762;12.302;2022-07-17T00:46:42;5.32;;;3.40;;
72209;SDS011;60113;48.762;12.302;2022-07-17T00:49:19;6.97;;;3.50;;
72209;SDS011;60113;48.762;12.302;2022-07-17T00:54:40;7.93;;;3.70;;
72209;SDS011;60113;48.762;12.302;2022-07-17T00:57:22;5.22;;;3.50;;
72209;SDS011;60113;48.762;12.302;2022-07-17T01:00:20;8.35;;;3.38;;
72209;SDS011;60113;48.762;12.302;2022-07-17T01:02:59;5.20;;;3.42;;
72209;SDS011;60113;48.762;12.302;2022-07-17T01:05:43;5.90;;;3.40;;
72209;SDS011;60113;48.762;12.302;2022-07-17T01:08:16;5.03;;;3.78;;
72209;SDS011;60113;48.762;12.302;2022-07-17T01:10:52;5.07;;;4.07;;
72209;SDS011;60113;48.762;12.302;2022-07-17T01:13:23;8.15;;;4.10;;
72209;SDS011;60113;48.762;12.302;2022-07-17T01:16:08;9.50;;;4.28;;
72209;SDS011;60113;48.762;12.302;2022-07-17T01:18:43;15.90;;;4.03;;
72209;SDS011;60113;48.762;12.302;2022-07-17T01:21:09;7.45;;;4.30;;
72209;SDS011;60113;48.762;12.302;2022-07-17T01:24:00;4.82;;;3.88;;
72209;SDS011;60113;48.762;12.302;2022-07-17T01:26:25;7.10;;;4.68;;
72209;SDS011;60113;48.762;12.302;2022-07-17T01:28:51;12.68;;;4.38;;
72209;SDS011;60113;48.762;12.302;2022-07-17T01:31:16;9.68;;;3.92;;
72209;SDS011;60113;48.762;12.302;2022-07-17T01:33:42;8.20;;;4.28;;
72209;SDS011;60113;48.762;12.302;2022-07-17T01:36:07;6.70;;;3.70;;
72209;SDS011;60113;48.762;12.302;2022-07-17T01:38:32;5.53;;;3.83;;
72209;SDS011;60113;48.762;12.302;2022-07-17T01:40:58;12.15;;;3.92;;
72209;SDS011;60113;48.762;12.302;2022-07-17T01:43:24;6.82;;;3.97;;
72209;SDS011;60113;48.762;12.302;2022-07-17T02:06:25;8.30;;;4.43;;
72209;SDS011;60113;48.762;12.302;2022-07-17T02:08:50;5.70;;;4.05;;
72209;SDS011;60113;48.762;12.302;2022-07-17T02:11:19;6.47;;;3.72;;
72209;SDS011;60113;48.762;12.302;2022-07-17T02:13:45;5.60;;;3.90;;
72209;SDS011;60113;48.762;12.302;2022-07-17T02:16:10;8.05;;;3.95;;
72209;SDS011;60113;48.762;12.302;2022-07-17T02:18:35;8.20;;;3.97;;
72209;SDS011;60113;48.762;12.302;2022-07-17T02:21:02;8.82;;;4.38;;
72209;SDS011;60113;48.762;12.302;2022-07-17T02:23:28;9.02;;;4.07;;
72209;SDS011;60113;48.762;12.302;2022-07-17T02:25:53;5.05;;;4.13;;
72209;SDS011;60113;48.762;12.302;2022-07-17T02:28:20;5.32;;;3.70;;
72209;SDS011;60113;48.762;12.302;2022-07-17T02:30:46;6.38;;;4.35;;
72209;SDS011;60113;48.762;12.302;2022-07-17T02:33:12;8.38;;;4.30;;
72209;SDS011;60113;48.762;12.302;2022-07-17T02:35:38;6.93;;;4.10;;
72209;SDS011;60113;48.762;12.302;2022-07-17T02:38:04;6.45;;;4.40;;
72209;SDS011;60113;48.762;12.302;2022-07-17T02:40:30;8.68;;;4.25;;
72209;SDS011;60113;48.762;12.302;2022-07-17T02:42:55;6.15;;;4.22;;
72209;SDS011;60113;48.762;12.302;2022-07-17T02:45:21;5.63;;;4.40;;
72209;SDS011;60113;48.762;12.302;2022-07-17T02:47:49;7.50;;;4.18;;
72209;SDS011;60113;48.762;12.302;2022-07-17T02:50:15;8.00;;;4.78;;
72209;SDS011;60113;48.762;12.302;2022-07-17T02:52:41;11.85;;;4.60;;
72209;SDS011;60113;48.762;12.302;2022-07-17T02:55:09;6.68;;;4.57;;
72209;SDS011;60113;48.762;12.302;2022-07-17T02:57:35;5.97;;;4.32;;
72209;SDS011;60113;48.762;12.302;2022-07-17T03:00:05;13.07;;;5.35;;
72209;SDS011;60113;48.762;12.302;2022-07-17T03:02:33;8.38;;;5.07;;
72209;SDS011;60113;48.762;12.302;2022-07-17T03:25:41;7.07;;;4.82;;
72209;SDS011;60113;48.762;12.302;2022-07-17T03:28:06;6.88;;;4.45;;
72209;SDS011;60113;48.762;12.302;2022-07-17T03:30:32;7.68;;;4.72;;
72209;SDS011;60113;48.762;12.302;2022-07-17T03:32:57;8.40;;;5.00;;
72209;SDS011;60113;48.762;12.302;2022-07-17T03:35:23;8.82;;;5.50;;
72209;SDS011;60113;48.762;12.302;2022-07-17T03:37:48;7.18;;;5.07;;
72209;SDS011;60113;48.762;12.302;2022-07-17T03:40:14;7.82;;;4.60;;
72209;SDS011;60113;48.762;12.302;2022-07-17T03:42:40;7.68;;;4.50;;
72209;SDS011;60113;48.762;12.302;2022-07-17T03:45:06;11.48;;;4.50;;
72209;SDS011;60113;48.762;12.302;2022-07-17T03:47:33;10.45;;;4.97;;
72209;SDS011;60113;48.762;12.302;2022-07-17T03:49:58;7.60;;;5.22;;
72209;SDS011;60113;48.762;12.302;2022-07-17T03:52:24;9.65;;;5.13;;
72209;SDS011;60113;48.762;12.302;2022-07-17T03:54:49;7.78;;;4.50;;
72209;SDS011;60113;48.762;12.302;2022-07-17T03:57:15;6.90;;;5.22;;
72209;SDS011;60113;48.762;12.302;2022-07-17T03:59:40;6.07;;;4.68;;
72209;SDS011;60113;48.762;12.302;2022-07-17T04:02:05;6.68;;;4.30;;
72209;SDS011;60113;48.762;12.302;2022-07-17T04:04:31;6.38;;;4.18;;
72209;SDS011;60113;48.762;12.302;2022-07-17T04:06:56;6.80;;;4.30;;
72209;SDS011;60113;48.762;12.302;2022-07-17T04:09:22;6.50;;;4.60;;
72209;SDS011;60113;48.762;12.302;2022-07-17T04:11:47;9.40;;;4.43;;
72209;SDS011;60113;48.762;12.302;2022-07-17T04:14:13;6.57;;;4.18;;
72209;SDS011;60113;48.762;12.302;2022-07-17T04:16:38;16.40;;;4.50;;
72209;SDS011;60113;48.762;12.302;2022-07-17T04:19:03;7.03;;;4.50;;
72209;SDS011;60113;48.762;12.302;2022-07-17T04:21:29;6.50;;;4.30;;
72209;SDS011;60113;48.762;12.302;2022-07-17T04:23:54;8.25;;;4.47;;
72209;SDS011;60113;48.762;12.302;2022-07-17T04:26:20;9.38;;;4.22;;
72209;SDS011;60113;48.762;12.302;2022-07-17T04:28:45;7.07;;;4.35;;
72209;SDS011;60113;48.762;12.302;2022-07-17T04:31:11;8.13;;;4.05;;
72209;SDS011;60113;48.762;12.302;2022-07-17T04:33:37;9.50;;;4.30;;
72209;SDS011;60113;48.762;12.302;2022-07-17T04:36:02;5.00;;;4.10;;
72209;SDS011;60113;48.762;12.302;2022-07-17T04:38:28;9.93;;;4.40;;
72209;SDS011;60113;48.762;12.302;2022-07-17T04:40:54;12.95;;;4.78;;
72209;SDS011;60113;48.762;12.302;2022-07-17T04:43:19;7.95;;;4.30;;
72209;SDS011;60113;48.762;12.302;2022-07-17T04:45:45;6.85;;;4.20;;
72209;SDS011;60113;48.762;12.302;2022-07-17T04:48:10;8.43;;;4.13;;
72209;SDS011;60113;48.762;12.302;2022-07-17T04:50:36;9.07;;;4.15;;
72209;SDS011;60113;48.762;12.302;2022-07-17T04:53:01;6.53;;;3.80;;
72209;SDS011;60113;48.762;12.302;2022-07-17T04:55:27;6.65;;;4.00;;
72209;SDS011;60113;48.762;12.302;2022-07-17T04:57:53;8.70;;;4.53;;
72209;SDS011;60113;48.762;12.302;2022-07-17T05:00:19;18.05;;;4.07;;
72209;SDS011;60113;48.762;12.302;2022-07-17T05:02:45;3.85;;;3.45;;
72209;SDS011;60113;48.762;12.302;2022-07-17T05:05:10;9.63;;;4.03;;
72209;SDS011;60113;48.762;12.302;2022-07-17T05:07:36;10.35;;;3.67;;
72209;SDS011;60113;48.762;12.302;2022-07-17T05:10:01;6.57;;;3.80;;
72209;SDS011;60113;48.762;12.302;2022-07-17T05:12:29;16.90;;;3.97;;
72209;SDS011;60113;48.762;12.302;2022-07-17T05:14:54;5.18;;;3.30;;
72209;SDS011;60113;48.762;12.302;2022-07-17T05:17:20;4.18;;;3.28;;
72209;SDS011;60113;48.762;12.302;2022-07-17T05:19:45;5.63;;;3.15;;
72209;SDS011;60113;48.762;12.302;2022-07-17T05:22:11;7.00;;;3.22;;
72209;SDS011;60113;48.762;12.302;2022-07-17T05:24:36;6.25;;;2.97;;
72209;SDS011;60113;48.762;12.302;2022-07-17T05:27:02;7.82;;;3.50;;
72209;SDS011;60113;48.762;12.302;2022-07-17T05:29:28;12.55;;;3.47;;
72209;SDS011;60113;48.762;12.302;2022-07-17T05:31:53;7.15;;;3.17;;
72209;SDS011;60113;48.762;12.302;2022-07-17T05:34:19;5.90;;;2.90;;
72209;SDS011;60113;48.762;12.302;2022-07-17T05:36:44;5.68;;;2.58;;
72209;SDS011;60113;48.762;12.302;2022-07-17T05:39:11;4.30;;;2.60;;
72209;SDS011;60113;48.762;12.302;2022-07-17T05:41:37;4.25;;;2.78;;
72209;SDS011;60113;48.762;12.302;2022-07-17T05:44:02;4.78;;;2.55;;
72209;SDS011;60113;48.762;12.302;2022-07-17T05:46:28;5.25;;;2.58;;
72209;SDS011;60113;48.762;12.302;2022-07-17T05:48:53;6.22;;;2.70;;
72209;SDS011;60113;48.762;12.302;2022-07-17T05:51:19;6.63;;;2.72;;
72209;SDS011;60113;48.762;12.302;2022-07-17T05:53:44;4.10;;;2.50;;
72209;SDS011;60113;48.762;12.302;2022-07-17T05:56:10;8.10;;;2.67;;
72209;SDS011;60113;48.762;12.302;2022-07-17T05:58:35;9.65;;;2.60;;
72209;SDS011;60113;48.762;12.302;2022-07-17T06:01:01;5.47;;;2.75;;
72209;SDS011;60113;48.762;12.302;2022-07-17T06:03:26;7.90;;;2.35;;
72209;SDS011;60113;48.762;12.302;2022-07-17T06:05:52;3.90;;;2.50;;
72209;SDS011;60113;48.762;12.302;2022-07-17T06:08:17;6.90;;;2.78;;
72209;SDS011;60113;48.762;12.302;2022-07-17T06:10:42;5.95;;;2.75;;
72209;SDS011;60113;48.762;12.302;2022-07-17T06:13:08;5.70;;;2.08;;
72209;SDS011;60113;48.762;12.302;2022-07-17T06:15:34;5.05;;;2.45;;
72209;SDS011;60113;48.762;12.302;2022-07-17T06:18:00;5.90;;;2.20;;
72209;SDS011;60113;48.762;12.302;2022-07-17T06:20:29;8.88;;;2.35;;
72209;SDS011;60113;48.762;12.302;2022-07-17T06:22:55;6.63;;;2.30;;
72209;SDS011;60113;48.762;12.302;2022-07-17T06:25:20;2.92;;;1.75;;
72209;SDS011;60113;48.762;12.302;2022-07-17T06:27:46;3.88;;;2.10;;
72209;SDS011;60113;48.762;12.302;2022-07-17T06:30:13;4.20;;;2.05;;
72209;SDS011;60113;48.762;12.302;2022-07-17T06:32:39;3.33;;;2.20;;
72209;SDS011;60113;48.762;12.302;2022-07-17T06:35:06;3.40;;;2.00;;
72209;SDS011;60113;48.762;12.302;2022-07-17T06:37:33;4.53;;;2.10;;
72209;SDS011;60113;48.762;12.302;2022-07-17T06:39:59;2.80;;;1.80;;
72209;SDS011;60113;48.762;12.302;2022-07-17T06:42:24;5.35;;;2.10;;
72209;SDS011;60113;48.762;12.302;2022-07-17T06:44:50;3.55;;;1.80;;
72209;SDS011;60113;48.762;12.302;2022-07-17T06:47:15;2.47;;;1.58;;
72209;SDS011;60113;48.762;12.302;2022-07-17T06:49:41;3.50;;;1.88;;
72209;SDS011;60113;48.762;12.302;2022-07-17T06:52:08;3.13;;;2.00;;
72209;SDS011;60113;48.762;12.302;2022-07-17T06:54:33;6.68;;;1.70;;
72209;SDS011;60113;48.762;12.302;2022-07-17T06:56:59;5.88;;;2.00;;
72209;SDS011;60113;48.762;12.302;2022-07-17T06:59:24;2.50;;;1.70;;
72209;SDS011;60113;48.762;12.302;2022-07-17T07:01:49;3.83;;;1.52;;
72209;SDS011;60113;48.762;12.302;2022-07-17T07:04:15;3.00;;;1.50;;
72209;SDS011;60113;48.762;12.302;2022-07-17T07:06:40;3.85;;;1.52;;
72209;SDS011;60113;48.762;12.302;2022-07-17T07:09:07;4.18;;;1.50;;
72209;SDS011;60113;48.762;12.302;2022-07-17T07:11:32;2.60;;;1.40;;
72209;SDS011;60113;48.762;12.302;2022-07-17T07:13:58;4.85;;;1.70;;
72209;SDS011;60113;48.762;12.302;2022-07-17T07:16:24;2.63;;;1.40;;
72209;SDS011;60113;48.762;12.302;2022-07-17T07:18:49;4.72;;;1.58;;
72209;SDS011;60113;48.762;12.302;2022-07-17T07:21:14;3.45;;;1.60;;
72209;SDS011;60113;48.762;12.302;2022-07-17T07:23:40;6.40;;;1.67;;
72209;SDS011;60113;48.762;12.302;2022-07-17T07:26:06;2.67;;;1.40;;
72209;SDS011;60113;48.762;12.302;2022-07-17T07:28:31;4.55;;;1.70;;
72209;SDS011;60113;48.762;12.302;2022-07-17T07:30:58;9.63;;;1.77;;
72209;SDS011;60113;48.762;12.302;2022-07-17T07:33:23;4.50;;;1.88;;
72209;SDS011;60113;48.762;12.302;2022-07-17T07:35:49;2.53;;;1.30;;
72209;SDS011;60113;48.762;12.302;2022-07-17T07:38:14;5.13;;;1.40;;
72209;SDS011;60113;48.762;12.302;2022-07-17T07:40:40;1.95;;;1.40;;
72209;SDS011;60113;48.762;12.302;2022-07-17T07:43:05;2.15;;;1.55;;
72209;SDS011;60113;48.762;12.302;2022-07-17T07:45:32;6.43;;;1.80;;
72209;SDS011;60113;48.762;12.302;2022-07-17T07:47:58;1.98;;;1.25;;
72209;SDS011;60113;48.762;12.302;2022-07-17T07:50:26;4.22;;;1.60;;
72209;SDS011;60113;48.762;12.302;2022-07-17T07:52:52;4.32;;;1.60;;
72209;SDS011;60113;48.762;12.302;2022-07-17T07:55:18;3.28;;;1.50;;
72209;SDS011;60113;48.762;12.302;2022-07-17T07:57:43;3.08;;;1.60;;
72209;SDS011;60113;48.762;12.302;2022-07-17T08:00:10;1.60;;;1.13;;
72209;SDS011;60113;48.762;12.302;2022-07-17T08:02:36;4.18;;;1.70;;
72209;SDS011;60113;48.762;12.302;2022-07-17T08:05:02;2.70;;;1.40;;
72209;SDS011;60113;48.762;12.302;2022-07-17T08:07:29;2.00;;;1.23;;
72209;SDS011;60113;48.762;12.302;2022-07-17T08:09:55;3.53;;;1.50;;
72209;SDS011;60113;48.762;12.302;2022-07-17T08:12:21;5.82;;;1.60;;
72209;SDS011;60113;48.762;12.302;2022-07-17T08:14:47;4.15;;;2.00;;
72209;SDS011;60113;48.762;12.302;2022-07-17T08:17:13;1.80;;;1.40;;
72209;SDS011;60113;48.762;12.302;2022-07-17T08:19:39;2.42;;;1.30;;
72209;SDS011;60113;48.762;12.302;2022-07-17T08:22:04;4.68;;;1.58;;
72209;SDS011;60113;48.762;12.302;2022-07-17T08:24:30;3.15;;;1.48;;
72209;SDS011;60113;48.762;12.302;2022-07-17T08:26:55;3.50;;;1.38;;
72209;SDS011;60113;48.762;12.302;2022-07-17T08:29:21;3.92;;;1.40;;
72209;SDS011;60113;48.762;12.302;2022-07-17T08:31:47;2.55;;;1.20;;
72209;SDS011;60113;48.762;12.302;2022-07-17T08:34:12;2.97;;;1.27;;
72209;SDS011;60113;48.762;12.302;2022-07-17T08:36:40;2.75;;;1.23;;
72209;SDS011;60113;48.762;12.302;2022-07-17T08:39:05;2.15;;;1.05;;
72209;SDS011;60113;48.762;12.302;2022-07-17T08:41:31;1.92;;;1.20;;
72209;SDS011;60113;48.762;12.302;2022-07-17T08:44:02;2.53;;;1.38;;
72209;SDS011;60113;48.762;12.302;2022-07-17T08:46:29;4.80;;;1.30;;
72209;SDS011;60113;48.762;12.302;2022-07-17T08:48:57;2.90;;;1.40;;
72209;SDS011;60113;48.762;12.302;2022-07-17T08:51:26;7.63;;;1.60;;
72209;SDS011;60113;48.762;12.302;2022-07-17T08:53:52;2.42;;;1.27;;
72209;SDS011;60113;48.762;12.302;2022-07-17T08:56:19;6.00;;;1.52;;
72209;SDS011;60113;48.762;12.302;2022-07-17T08:58:45;3.30;;;1.30;;
72209;SDS011;60113;48.762;12.302;2022-07-17T09:01:11;6.80;;;1.63;;
72209;SDS011;60113;48.762;12.302;2022-07-17T09:03:38;2.42;;;1.10;;
72209;SDS011;60113;48.762;12.302;2022-07-17T09:06:16;1.77;;;1.00;;
72209;SDS011;60113;48.762;12.302;2022-07-17T09:08:42;1.73;;;1.15;;
72209;SDS011;60113;48.762;12.302;2022-07-17T09:11:08;3.90;;;1.13;;
72209;SDS011;60113;48.762;12.302;2022-07-17T09:13:34;4.20;;;1.60;;
72209;SDS011;60113;48.762;12.302;2022-07-17T09:16:07;4.03;;;1.60;;
72209;SDS011;60113;48.762;12.302;2022-07-17T09:18:42;2.15;;;1.23;;
72209;SDS011;60113;48.762;12.302;2022-07-17T09:21:15;2.35;;;1.15;;
72209;SDS011;60113;48.762;12.302;2022-07-17T09:23:43;1.75;;;1.38;;
72209;SDS011;60113;48.762;12.302;2022-07-17T09:26:09;7.32;;;1.50;;
72209;SDS011;60113;48.762;12.302;2022-07-17T09:28:43;1.88;;;1.08;;
72209;SDS011;60113;48.762;12.302;2022-07-17T09:31:11;5.10;;;1.40;;
72209;SDS011;60113;48.762;12.302;2022-07-17T09:33:37;3.10;;;1.30;;
72209;SDS011;60113;48.762;12.302;2022-07-17T09:36:06;2.13;;;1.40;;
72209;SDS011;60113;48.762;12.302;2022-07-17T09:38:36;3.45;;;1.48;;
72209;SDS011;60113;48.762;12.302;2022-07-17T09:41:10;5.40;;;1.30;;
72209;SDS011;60113;48.762;12.302;2022-07-17T09:43:38;5.78;;;1.30;;
72209;SDS011;60113;48.762;12.302;2022-07-17T09:46:05;2.60;;;1.10;;
72209;SDS011;60113;48.762;12.302;2022-07-17T09:48:33;3.15;;;1.20;;
72209;SDS011;60113;48.762;12.302;2022-07-17T09:51:05;2.28;;;1.00;;
72209;SDS011;60113;48.762;12.302;2022-07-17T09:53:31;1.25;;;1.10;;
72209;SDS011;60113;48.762;12.302;2022-07-17T09:56:01;2.22;;;1.25;;
72209;SDS011;60113;48.762;12.302;2022-07-17T09:58:27;2.03;;;1.10;;
72209;SDS011;60113;48.762;12.302;2022-07-17T10:00:57;1.98;;;1.25;;
72209;SDS011;60113;48.762;12.302;2022-07-17T10:03:24;1.00;;;0.70;;
72209;SDS011;60113;48.762;12.302;2022-07-17T10:05:50;1.98;;;1.05;;
72209;SDS011;60113;48.762;12.302;2022-07-17T10:08:16;3.55;;;1.25;;
72209;SDS011;60113;48.762;12.302;2022-07-17T10:10:43;2.45;;;1.00;;
72209;SDS011;60113;48.762;12.302;2022-07-17T10:13:09;4.05;;;1.30;;
72209;SDS011;60113;48.762;12.302;2022-07-17T10:15:35;3.90;;;1.10;;
72209;SDS011;60113;48.762;12.302;2022-07-17T10:18:07;2.08;;;1.02;;
72209;SDS011;60113;48.762;12.302;2022-07-17T10:20:32;4.10;;;1.27;;
72209;SDS011;60113;48.762;12.302;2022-07-17T10:22:58;2.58;;;1.25;;
72209;SDS011;60113;48.762;12.302;2022-07-17T10:25:24;2.22;;;1.00;;
72209;SDS011;60113;48.762;12.302;2022-07-17T10:27:54;2.55;;;1.02;;
72209;SDS011;60113;48.762;12.302;2022-07-17T10:30:27;4.63;;;1.48;;
72209;SDS011;60113;48.762;12.302;2022-07-17T10:32:58;8.05;;;1.30;;
72209;SDS011;60113;48.762;12.302;2022-07-17T10:35:26;3.17;;;1.02;;
72209;SDS011;60113;48.762;12.302;2022-07-17T10:37:57;1.90;;;1.10;;
72209;SDS011;60113;48.762;12.302;2022-07-17T10:40:24;1.23;;;0.90;;
72209;SDS011;60113;48.762;12.302;2022-07-17T10:42:58;1.50;;;1.00;;
72209;SDS011;60113;48.762;12.302;2022-07-17T10:50:46;3.63;;;1.00;;
72209;SDS011;60113;48.762;12.302;2022-07-17T10:53:30;3.78;;;1.10;;
72209;SDS011;60113;48.762;12.302;2022-07-17T10:56:06;4.43;;;1.00;;
72209;SDS011;60113;48.762;12.302;2022-07-17T11:01:10;1.35;;;1.13;;
72209;SDS011;60113;48.762;12.302;2022-07-17T11:03:46;5.53;;;1.30;;
72209;SDS011;60113;48.762;12.302;2022-07-17T11:06:25;2.13;;;1.20;;
72209;SDS011;60113;48.762;12.302;2022-07-17T11:08:57;7.05;;;1.17;;
72209;SDS011;60113;48.762;12.302;2022-07-17T11:11:46;1.60;;;1.00;;
72209;SDS011;60113;48.762;12.302;2022-07-17T11:14:15;2.90;;;1.10;;
72209;SDS011;60113;48.762;12.302;2022-07-17T11:19:28;5.28;;;1.27;;
72209;SDS011;60113;48.762;12.302;2022-07-17T11:22:04;1.85;;;0.98;;
72209;SDS011;60113;48.762;12.302;2022-07-17T11:24:44;4.13;;;1.30;;
72209;SDS011;60113;48.762;12.302;2022-07-17T11:27:12;5.07;;;1.27;;
72209;SDS011;60113;48.762;12.302;2022-07-17T11:29:44;2.70;;;1.15;;
72209;SDS011;60113;48.762;12.302;2022-07-17T11:32:09;1.35;;;0.88;;
72209;SDS011;60113;48.762;12.302;2022-07-17T11:34:35;1.58;;;0.70;;
72209;SDS011;60113;48.762;12.302;2022-07-17T11:37:02;1.27;;;1.00;;
72209;SDS011;60113;48.762;12.302;2022-07-17T11:42:15;1.75;;;1.00;;
72209;SDS011;60113;48.762;12.302;2022-07-17T11:44:45;2.90;;;1.00;;
72209;SDS011;60113;48.762;12.302;2022-07-17T11:47:19;5.55;;;0.98;;
72209;SDS011;60113;48.762;12.302;2022-07-17T11:49:48;1.88;;;1.10;;
72209;SDS011;60113;48.762;12.302;2022-07-17T11:52:17;3.10;;;1.00;;
72209;SDS011;60113;48.762;12.302;2022-07-17T11:54:51;1.70;;;1.17;;
72209;SDS011;60113;48.762;12.302;2022-07-17T11:57:21;2.78;;;1.10;;
72209;SDS011;60113;48.762;12.302;2022-07-17T11:59:49;3.88;;;1.00;;
72209;SDS011;60113;48.762;12.302;2022-07-17T12:02:17;1.17;;;0.80;;
72209;SDS011;60113;48.762;12.302;2022-07-17T12:04:56;2.30;;;1.02;;
72209;SDS011;60113;48.762;12.302;2022-07-17T12:07:24;2.33;;;1.05;;
72209;SDS011;60113;48.762;12.302;2022-07-17T12:09:53;2.65;;;0.90;;
72209;SDS011;60113;48.762;12.302;2022-07-17T12:12:23;2.70;;;1.00;;
72209;SDS011;60113;48.762;12.302;2022-07-17T12:14:51;7.93;;;1.13;;
72209;SDS011;60113;48.762;12.302;2022-07-17T12:17:35;1.60;;;1.13;;
72209;SDS011;60113;48.762;12.302;2022-07-17T12:20:06;1.15;;;0.80;;
72209;SDS011;60113;48.762;12.302;2022-07-17T12:22:46;1.63;;;0.90;;
72209;SDS011;60113;48.762;12.302;2022-07-17T12:25:23;1.63;;;0.85;;
72209;SDS011;60113;48.762;12.302;2022-07-17T12:27:49;5.97;;;1.00;;
72209;SDS011;60113;48.762;12.302;2022-07-17T12:30:15;15.82;;;1.10;;
72209;SDS011;60113;48.762;12.302;2022-07-17T12:32:41;15.57;;;1.35;;
72209;SDS011;60113;48.762;12.302;2022-07-17T12:35:07;5.45;;;1.60;;
72209;SDS011;60113;48.762;12.302;2022-07-17T12:37:33;3.38;;;1.00;;
72209;SDS011;60113;48.762;12.302;2022-07-17T12:39:58;4.03;;;1.10;;
72209;SDS011;60113;48.762;12.302;2022-07-17T12:42:24;2.22;;;1.15;;
72209;SDS011;60113;48.762;12.302;2022-07-17T12:44:49;1.50;;;1.00;;
72209;SDS011;60113;48.762;12.302;2022-07-17T12:47:15;5.43;;;1.60;;
72209;SDS011;60113;48.762;12.302;2022-07-17T12:49:40;4.53;;;1.05;;
72209;SDS011;60113;48.762;12.302;2022-07-17T12:52:06;7.38;;;1.10;;
72209;SDS011;60113;48.762;12.302;2022-07-17T12:54:32;1.50;;;0.80;;
72209;SDS011;60113;48.762;12.302;2022-07-17T12:56:58;4.50;;;1.00;;
72209;SDS011;60113;48.762;12.302;2022-07-17T12:59:23;1.77;;;1.02;;
72209;SDS011;60113;48.762;12.302;2022-07-17T13:01:49;0.98;;;0.73;;
72209;SDS011;60113;48.762;12.302;2022-07-17T13:04:14;1.10;;;0.80;;
72209;SDS011;60113;48.762;12.302;2022-07-17T13:06:40;2.25;;;0.90;;
72209;SDS011;60113;48.762;12.302;2022-07-17T13:09:06;7.57;;;1.10;;
72209;SDS011;60113;48.762;12.302;2022-07-17T13:11:32;3.42;;;0.80;;
72209;SDS011;60113;48.762;12.302;2022-07-17T13:13:57;3.00;;;1.17;;
72209;SDS011;60113;48.762;12.302;2022-07-17T13:16:24;2.05;;;0.90;;
72209;SDS011;60113;48.762;12.302;2022-07-17T13:18:49;1.75;;;0.90;;
72209;SDS011;60113;48.762;12.302;2022-07-17T13:21:15;1.48;;;0.80;;
72209;SDS011;60113;48.762;12.302;2022-07-17T13:23:40;1.05;;;0.80;;
72209;SDS011;60113;48.762;12.302;2022-07-17T13:26:06;4.47;;;1.00;;
72209;SDS011;60113;48.762;12.302;2022-07-17T13:28:31;4.60;;;0.80;;
72209;SDS011;60113;48.762;12.302;2022-07-17T13:30:57;1.52;;;0.82;;
72209;SDS011;60113;48.762;12.302;2022-07-17T13:33:24;7.32;;;1.10;;
72209;SDS011;60113;48.762;12.302;2022-07-17T13:35:50;5.30;;;1.00;;
72209;SDS011;60113;48.762;12.302;2022-07-17T13:38:16;3.03;;;0.95;;
72209;SDS011;60113;48.762;12.302;2022-07-17T13:40:41;3.33;;;1.08;;
72209;SDS011;60113;48.762;12.302;2022-07-17T13:43:07;2.70;;;1.00;;
72209;SDS011;60113;48.762;12.302;2022-07-17T13:45:33;2.55;;;1.08;;
72209;SDS011;60113;48.762;12.302;2022-07-17T13:47:59;2.83;;;0.90;;
72209;SDS011;60113;48.762;12.302;2022-07-17T13:50:25;1.45;;;0.95;;
72209;SDS011;60113;48.762;12.302;2022-07-17T13:52:50;2.67;;;1.00;;
72209;SDS011;60113;48.762;12.302;2022-07-17T13:55:16;2.60;;;1.00;;
72209;SDS011;60113;48.762;12.302;2022-07-17T13:57:42;0.90;;;0.70;;
72209;SDS011;60113;48.762;12.302;2022-07-17T14:00:08;1.80;;;0.90;;
72209;SDS011;60113;48.762;12.302;2022-07-17T14:02:35;1.48;;;0.90;;
72209;SDS011;60113;48.762;12.302;2022-07-17T14:05:02;3.10;;;1.00;;
72209;SDS011;60113;48.762;12.302;2022-07-17T14:07:29;0.98;;;0.73;;
72209;SDS011;60113;48.762;12.302;2022-07-17T14:09:55;1.13;;;0.90;;
72209;SDS011;60113;48.762;12.302;2022-07-17T14:12:21;3.25;;;1.10;;
72209;SDS011;60113;48.762;12.302;2022-07-17T14:14:46;3.95;;;0.98;;
72209;SDS011;60113;48.762;12.302;2022-07-17T14:17:12;1.58;;;0.90;;
72209;SDS011;60113;48.762;12.302;2022-07-17T14:19:38;11.35;;;1.02;;
72209;SDS011;60113;48.762;12.302;2022-07-17T14:22:03;1.55;;;0.70;;
72209;SDS011;60113;48.762;12.302;2022-07-17T14:24:29;3.45;;;0.90;;
72209;SDS011;60113;48.762;12.302;2022-07-17T14:26:55;1.48;;;0.90;;
72209;SDS011;60113;48.762;12.302;2022-07-17T14:29:20;2.83;;;0.82;;
72209;SDS011;60113;48.762;12.302;2022-07-17T14:31:46;3.30;;;0.90;;
72209;SDS011;60113;48.762;12.302;2022-07-17T14:34:12;5.28;;;1.08;;
72209;SDS011;60113;48.762;12.302;2022-07-17T14:36:38;3.53;;;1.00;;
72209;SDS011;60113;48.762;12.302;2022-07-17T14:39:04;1.67;;;0.77;;
72209;SDS011;60113;48.762;12.302;2022-07-17T14:41:29;4.68;;;0.80;;
72209;SDS011;60113;48.762;12.302;2022-07-17T14:43:55;1.02;;;0.77;;
72209;SDS011;60113;48.762;12.302;2022-07-17T14:46:20;1.45;;;0.75;;
72209;SDS011;60113;48.762;12.302;2022-07-17T14:48:46;1.70;;;0.88;;
72209;SDS011;60113;48.762;12.302;2022-07-17T14:51:12;1.73;;;0.80;;
72209;SDS011;60113;48.762;12.302;2022-07-17T14:53:37;1.77;;;0.82;;
72209;SDS011;60113;48.762;12.302;2022-07-17T14:56:03;1.75;;;0.80;;
72209;SDS011;60113;48.762;12.302;2022-07-17T14:58:28;2.42;;;0.90;;
72209;SDS011;60113;48.762;12.302;2022-07-17T15:00:54;1.50;;;0.98;;
72209;SDS011;60113;48.762;12.302;2022-07-17T15:03:19;5.30;;;0.80;;
72209;SDS011;60113;48.762;12.302;2022-07-17T15:05:45;1.48;;;0.80;;
72209;SDS011;60113;48.762;12.302;2022-07-17T15:08:10;1.45;;;0.95;;
72209;SDS011;60113;48.762;12.302;2022-07-17T15:10:36;2.35;;;1.02;;
72209;SDS011;60113;48.762;12.302;2022-07-17T15:13:01;3.10;;;1.10;;
72209;SDS011;60113;48.762;12.302;2022-07-17T15:15:27;2.65;;;1.05;;
72209;SDS011;60113;48.762;12.302;2022-07-17T15:17:52;2.72;;;0.95;;
72209;SDS011;60113;48.762;12.302;2022-07-17T15:20:18;2.65;;;0.90;;
72209;SDS011;60113;48.762;12.302;2022-07-17T15:22:43;1.75;;;1.00;;
72209;SDS011;60113;48.762;12.302;2022-07-17T15:25:09;6.88;;;1.00;;
72209;SDS011;60113;48.762;12.302;2022-07-17T15:27:35;1.70;;;1.02;;
72209;SDS011;60113;48.762;12.302;2022-07-17T15:30:00;2.97;;;1.05;;
72209;SDS011;60113;48.762;12.302;2022-07-17T15:32:26;3.45;;;1.40;;